CYQR

Regina International Airport

Regina, Saskatchewan, Canada
METAR CYQR 221400Z 08020G28KT 8SM -RA BKN009 OVC039 01/00 A3002 RMK SF5SC3 PRESFR SLP191
Observed Flight Rules
Sep-22 @ 14:00 UTC (60 minutes ago) Instrument Flight Rules
Wind Visibility Clouds Conditions
80° at 20 knots
 Gusting to 28 knots
8 miles
Temperatures Readings
Current 1°C / 34°F
Dewpoint 0°C / 32°F
Humidity 93%
Altimeter 30.02" Hg
Pressure 1019.1 hPa
Elevation 577
METAR CYQR 221400Z 08020G28KT 8SM -RA BKN009 OVC039 01/00 A3002 RMK SF5SC3 PRESFR SLP191
Observed Flight Rules
Sep-22 @ 14:00 UTC
(60 minutes ago)
IFR
Wind Visibility
80° at 20 knots
 Gusting to 28 knots
8 miles
Clouds
Conditions
Temperature Dewpoint
1°C / 34°F 0°C / 32°F
Humidity Altimeter Pressure
93% 30.02" Hg 1019.1 hPa